createdAt,value
2022-08-17T00:00:34.286Z,18.34
2022-08-17T00:03:10.063Z,18.34
2022-08-17T00:05:43.695Z,18.31
2022-08-17T00:08:12.321Z,18.06
2022-08-17T00:10:40.918Z,18.13
2022-08-17T00:13:10.410Z,18.09
2022-08-17T00:15:39.093Z,17.71
2022-08-17T00:19:01.315Z,17.96
2022-08-17T00:20:58.383Z,17.99
2022-08-17T00:23:26.968Z,18.00
2022-08-17T00:25:55.790Z,17.96
2022-08-17T00:28:24.571Z,17.97
2022-08-17T00:30:54.412Z,17.87
2022-08-17T00:33:26.830Z,17.81
2022-08-17T00:35:56.183Z,17.80
2022-08-17T00:38:25.244Z,17.71
2022-08-17T00:40:55.658Z,17.45
2022-08-17T00:43:31.678Z,17.63
2022-08-17T00:46:00.900Z,17.60
2022-08-17T00:48:31.089Z,17.57
2022-08-17T00:51:06.331Z,17.53
2022-08-17T00:53:36.015Z,17.52
2022-08-17T00:56:07.128Z,17.52
2022-08-17T00:58:36.469Z,17.41
2022-08-17T01:01:06.093Z,17.45
2022-08-17T01:03:36.468Z,17.45
2022-08-17T01:06:06.097Z,17.27
2022-08-17T01:08:34.654Z,17.49
2022-08-17T01:11:05.369Z,17.50
2022-08-17T01:13:40.995Z,17.45
2022-08-17T01:16:18.952Z,17.41
2022-08-17T01:18:51.262Z,17.39
2022-08-17T01:21:25.270Z,17.37
2022-08-17T01:23:54.804Z,17.29
2022-08-17T01:26:23.140Z,17.30
2022-08-17T01:28:54.621Z,17.31
2022-08-17T01:31:25.962Z,17.18
2022-08-17T01:33:54.613Z,17.18
2022-08-17T01:36:22.847Z,17.12
2022-08-17T01:38:51.141Z,16.83
2022-08-17T01:41:23.481Z,17.05
2022-08-17T01:43:54.705Z,17.10
2022-08-17T01:46:24.965Z,17.04
2022-08-17T01:48:53.153Z,17.08
2022-08-17T01:51:22.175Z,17.11
2022-08-17T01:53:53.673Z,17.11
2022-08-17T01:56:27.026Z,17.15
2022-08-17T01:58:55.462Z,16.88
2022-08-17T02:01:26.611Z,17.11
2022-08-17T02:04:00.626Z,17.11
2022-08-17T02:06:31.260Z,17.13
2022-08-17T02:09:03.052Z,17.07
2022-08-17T02:11:34.751Z,17.10
2022-08-17T02:14:04.040Z,17.05
2022-08-17T02:16:36.838Z,17.03
2022-08-17T02:19:13.551Z,16.92
2022-08-17T02:21:42.216Z,16.91
2022-08-17T02:24:12.982Z,16.91
2022-08-17T02:26:42.806Z,16.94
2022-08-17T02:29:11.022Z,16.99
2022-08-17T02:31:39.211Z,16.93
2022-08-17T02:34:07.445Z,16.97
2022-08-17T02:36:36.046Z,16.98
2022-08-17T02:39:05.648Z,16.77
2022-08-17T02:41:34.008Z,17.04
2022-08-17T02:44:03.499Z,17.03
2022-08-17T02:46:32.368Z,17.06
2022-08-17T02:49:00.719Z,17.00
2022-08-17T02:51:29.826Z,16.97
2022-08-17T02:54:02.183Z,16.91
2022-08-17T02:56:47.147Z,16.88
2022-08-17T02:59:16.882Z,16.89
2022-08-17T03:01:45.103Z,16.89
2022-08-17T03:04:13.338Z,16.89
2022-08-17T03:06:41.441Z,16.81
2022-08-17T03:09:09.865Z,16.48
2022-08-17T03:11:38.003Z,16.69
2022-08-17T03:14:08.910Z,16.50
2022-08-17T03:16:38.402Z,16.65
2022-08-17T03:19:07.567Z,16.63
2022-08-17T03:21:35.755Z,16.64
2022-08-17T03:24:09.028Z,16.67
2022-08-17T03:26:37.748Z,16.73
2022-08-17T03:29:05.876Z,16.75
2022-08-17T03:31:34.041Z,16.75
2022-08-17T03:34:06.632Z,16.74
2022-08-17T03:36:36.110Z,16.69
2022-08-17T03:39:04.714Z,16.68
2022-08-17T03:41:32.932Z,16.62
2022-08-17T03:44:01.159Z,16.64
2022-08-17T03:46:46.916Z,16.67
2022-08-17T03:49:34.781Z,16.67
2022-08-17T03:52:20.512Z,16.69
2022-08-17T03:55:06.379Z,16.70
2022-08-17T03:57:34.539Z,16.69
2022-08-17T04:00:02.759Z,16.72
2022-08-17T04:02:33.120Z,16.73
2022-08-17T04:05:02.876Z,16.70
2022-08-17T04:07:32.351Z,16.41
2022-08-17T04:10:05.016Z,16.62
2022-08-17T04:12:44.696Z,16.46
2022-08-17T04:15:13.486Z,16.56
2022-08-17T04:17:41.911Z,16.44
2022-08-17T04:20:12.567Z,16.48
2022-08-17T04:22:40.724Z,16.52
2022-08-17T04:25:16.590Z,16.54
2022-08-17T04:27:44.861Z,16.49
2022-08-17T04:30:14.039Z,16.53
2022-08-17T04:33:04.769Z,16.42
2022-08-17T04:35:37.980Z,16.50
2022-08-17T04:38:06.637Z,16.49
2022-08-17T04:40:52.386Z,16.47
2022-08-17T04:43:22.833Z,16.45
2022-08-17T04:45:56.363Z,16.52
2022-08-17T04:48:33.400Z,16.62
2022-08-17T04:51:09.899Z,16.45
2022-08-17T04:53:39.197Z,16.68
2022-08-17T04:56:07.873Z,16.69
2022-08-17T04:58:40.208Z,16.77
2022-08-17T05:01:08.848Z,16.69
2022-08-17T05:03:37.088Z,16.74
2022-08-17T05:06:07.112Z,16.74
2022-08-17T05:08:35.600Z,16.84
2022-08-17T05:11:03.878Z,16.89
2022-08-17T05:13:32.212Z,16.77
2022-08-17T05:16:01.774Z,17.05
2022-08-17T05:18:30.853Z,17.13
2022-08-17T05:20:59.058Z,17.17
2022-08-17T05:23:38.485Z,17.25
2022-08-17T05:26:11.723Z,17.35
2022-08-17T05:28:54.321Z,17.42
2022-08-17T05:31:22.517Z,17.45
2022-08-17T05:33:50.696Z,17.48
2022-08-17T05:36:42.154Z,17.29
2022-08-17T05:39:08.508Z,17.57
2022-08-17T05:41:46.350Z,17.72
2022-08-17T05:44:14.596Z,17.86
2022-08-17T05:46:45.300Z,18.08
2022-08-17T05:49:15.880Z,18.16
2022-08-17T05:52:10.055Z,18.07
2022-08-17T05:54:50.258Z,18.34
2022-08-17T05:57:30.887Z,18.25
2022-08-17T06:00:10.017Z,18.47
2022-08-17T06:02:47.873Z,18.58
2022-08-17T06:05:36.389Z,18.61
2022-08-17T06:08:12.734Z,18.62
2022-08-17T06:10:46.702Z,18.59
2022-08-17T06:13:23.693Z,18.87
2022-08-17T06:15:58.378Z,19.04
2022-08-17T06:18:31.087Z,19.22
2022-08-17T06:21:02.311Z,19.31
2022-08-17T06:23:36.735Z,19.21
2022-08-17T06:26:13.514Z,19.60
2022-08-17T06:28:46.272Z,19.77
2022-08-17T06:31:27.506Z,19.95
2022-08-17T06:33:55.950Z,20.11
2022-08-17T06:36:43.139Z,20.30
2022-08-17T06:39:30.851Z,20.44
2022-08-17T06:42:09.541Z,20.64
2022-08-17T06:45:03.470Z,20.78
2022-08-17T06:47:36.753Z,20.86
2022-08-17T06:50:11.803Z,21.05
2022-08-17T06:52:47.581Z,21.26
2022-08-17T06:55:19.485Z,21.47
2022-08-17T06:57:51.688Z,21.62
2022-08-17T07:00:26.116Z,21.76
2022-08-17T07:02:58.225Z,21.95
2022-08-17T07:05:28.296Z,22.15
2022-08-17T07:08:04.868Z,22.01
2022-08-17T07:10:38.516Z,22.28
2022-08-17T07:13:29.418Z,22.49
2022-08-17T07:16:04.771Z,22.59
2022-08-17T07:18:36.654Z,22.62
2022-08-17T07:21:15.519Z,22.83
2022-08-17T07:23:57.872Z,23.11
2022-08-17T07:26:26.094Z,23.35
2022-08-17T07:28:56.226Z,23.45
2022-08-17T07:31:26.392Z,23.70
2022-08-17T07:34:08.486Z,23.95
2022-08-17T07:36:36.648Z,23.95
2022-08-17T07:39:06.014Z,24.40
2022-08-17T07:41:53.168Z,24.46
2022-08-17T07:44:28.649Z,24.52
2022-08-17T07:47:15.230Z,24.78
2022-08-17T07:49:46.160Z,25.00
2022-08-17T07:52:50.553Z,25.15
2022-08-17T07:55:27.968Z,25.34
2022-08-17T07:57:57.446Z,25.55
2022-08-17T08:00:32.630Z,25.68
2022-08-17T08:03:06.394Z,25.59
2022-08-17T08:05:49.953Z,25.91
2022-08-17T08:08:28.052Z,25.80
2022-08-17T08:11:02.762Z,26.09
2022-08-17T08:13:32.818Z,26.29
2022-08-17T08:16:25.922Z,26.42
2022-08-17T08:18:57.951Z,26.41
2022-08-17T08:21:37.834Z,26.53
2022-08-17T08:24:19.607Z,26.64
2022-08-17T08:26:54.016Z,26.76
2022-08-17T08:29:28.441Z,26.86
2022-08-17T08:32:04.973Z,26.97
2022-08-17T08:34:58.564Z,27.02
2022-08-17T08:37:40.501Z,27.06
2022-08-17T08:40:21.562Z,27.15
2022-08-17T08:42:56.588Z,27.18
2022-08-17T08:45:28.376Z,27.26
2022-08-17T08:48:22.883Z,27.46
2022-08-17T08:51:01.714Z,27.54
2022-08-17T08:53:37.601Z,27.45
2022-08-17T08:56:08.864Z,27.65
2022-08-17T08:58:50.726Z,27.60
2022-08-17T09:01:25.123Z,27.82
2022-08-17T09:04:20.010Z,27.99
2022-08-17T09:06:59.844Z,28.17
2022-08-17T09:09:37.267Z,28.26
2022-08-17T09:12:10.732Z,28.28
2022-08-17T09:14:46.610Z,28.26
2022-08-17T09:17:18.451Z,28.31
2022-08-17T09:19:52.042Z,28.55
2022-08-17T09:22:31.325Z,28.71
2022-08-17T09:25:08.096Z,28.93
2022-08-17T09:27:46.328Z,29.01
2022-08-17T09:30:15.320Z,29.12
2022-08-17T09:32:47.105Z,28.88
2022-08-17T09:35:19.921Z,29.27
2022-08-17T09:37:54.954Z,29.46
2022-08-17T09:40:26.730Z,29.46
2022-08-17T09:42:57.826Z,29.53
2022-08-17T09:45:32.212Z,29.49
2022-08-17T09:48:05.029Z,29.56
2022-08-17T09:51:03.183Z,29.86
2022-08-17T09:53:31.665Z,29.87
2022-08-17T09:56:08.360Z,29.99
2022-08-17T09:58:50.467Z,29.97
2022-08-17T10:01:31.899Z,30.39
2022-08-17T10:04:07.693Z,30.83
2022-08-17T10:06:47.704Z,30.96
2022-08-17T10:09:18.890Z,30.22
2022-08-17T10:12:09.357Z,30.34
2022-08-17T10:14:44.006Z,30.72
2022-08-17T10:17:20.995Z,31.01
2022-08-17T10:19:58.655Z,31.23
2022-08-17T10:22:53.078Z,31.45
2022-08-17T10:25:54.531Z,31.63
2022-08-17T10:28:29.869Z,31.71
2022-08-17T10:31:30.758Z,31.47
2022-08-17T10:34:08.207Z,31.72
2022-08-17T10:36:46.133Z,32.03
2022-08-17T10:39:24.866Z,31.79
2022-08-17T10:41:57.054Z,31.42
2022-08-17T10:44:38.828Z,31.52
2022-08-17T10:47:11.689Z,31.37
2022-08-17T10:49:47.568Z,31.46
2022-08-17T10:52:52.367Z,31.42
2022-08-17T10:55:22.212Z,31.69
2022-08-17T10:57:51.426Z,31.71
2022-08-17T11:01:05.788Z,32.06
2022-08-17T11:03:34.045Z,32.31
2022-08-17T11:06:12.744Z,32.17
2022-08-17T11:09:06.506Z,32.33
2022-08-17T11:11:47.947Z,32.42
2022-08-17T11:14:34.906Z,32.27
2022-08-17T11:17:42.223Z,32.19
2022-08-17T11:20:31.084Z,32.56
2022-08-17T11:23:21.607Z,32.59
2022-08-17T11:25:53.644Z,32.71
2022-08-17T11:28:26.425Z,32.96
2022-08-17T11:30:57.193Z,33.10
2022-08-17T11:33:53.683Z,33.33
2022-08-17T11:36:31.737Z,33.17
2022-08-17T11:39:04.584Z,33.45
2022-08-17T11:41:39.799Z,33.85
2022-08-17T11:44:22.038Z,33.84
2022-08-17T11:47:23.415Z,33.70
2022-08-17T11:50:25.799Z,33.51
2022-08-17T11:52:56.104Z,33.58
2022-08-17T11:56:01.822Z,33.53
2022-08-17T11:58:38.759Z,33.08
2022-08-17T12:01:09.424Z,33.37
2022-08-17T12:03:55.583Z,33.48
2022-08-17T12:06:43.172Z,33.86
2022-08-17T12:09:15.824Z,34.11
2022-08-17T12:11:58.665Z,34.15
2022-08-17T12:15:08.085Z,34.21
2022-08-17T12:17:40.502Z,33.38
2022-08-17T12:20:24.300Z,33.32
2022-08-17T12:23:00.939Z,33.76
2022-08-17T12:25:35.242Z,33.89
2022-08-17T12:28:06.540Z,34.10
2022-08-17T12:30:36.617Z,34.15
2022-08-17T12:33:13.730Z,34.31
2022-08-17T12:35:59.731Z,34.07
2022-08-17T12:38:32.369Z,33.68
2022-08-17T12:41:22.487Z,33.34
2022-08-17T12:44:01.642Z,33.71
2022-08-17T12:46:33.767Z,33.94
2022-08-17T12:49:24.614Z,33.91
2022-08-17T12:51:56.539Z,33.81
2022-08-17T12:54:31.424Z,33.45
2022-08-17T12:57:03.240Z,33.67
2022-08-17T12:59:33.163Z,33.78
2022-08-17T13:02:02.254Z,33.74
2022-08-17T13:04:32.816Z,33.91
2022-08-17T13:07:00.999Z,34.09
2022-08-17T13:09:35.888Z,34.40
2022-08-17T13:12:09.327Z,34.82
2022-08-17T13:14:37.622Z,34.91
2022-08-17T13:17:11.060Z,35.11
2022-08-17T13:19:49.833Z,34.86
2022-08-17T13:22:21.384Z,35.04
2022-08-17T13:24:54.153Z,35.27
2022-08-17T13:27:24.375Z,35.54
2022-08-17T13:29:55.892Z,35.31
2022-08-17T13:32:34.366Z,35.09
2022-08-17T13:35:43.069Z,34.88
2022-08-17T13:38:15.714Z,34.86
2022-08-17T13:40:51.947Z,34.53
2022-08-17T13:43:44.619Z,34.92
2022-08-17T13:46:19.905Z,34.75
2022-08-17T13:48:58.345Z,34.56
2022-08-17T13:51:31.223Z,34.64
2022-08-17T13:54:05.824Z,34.85
2022-08-17T13:56:56.267Z,34.76
2022-08-17T13:59:52.503Z,34.37
2022-08-17T14:02:22.237Z,33.98
2022-08-17T14:04:50.490Z,33.84
2022-08-17T14:07:29.426Z,34.20
2022-08-17T14:10:00.702Z,34.67
2022-08-17T14:12:30.295Z,34.82
2022-08-17T14:14:59.503Z,34.88
2022-08-17T14:17:36.346Z,34.71
2022-08-17T14:20:09.510Z,34.33
2022-08-17T14:22:40.816Z,34.24
2022-08-17T14:25:10.880Z,34.32
2022-08-17T14:27:47.132Z,34.45
2022-08-17T14:30:22.218Z,34.62
2022-08-17T14:32:52.079Z,35.09
2022-08-17T14:35:23.289Z,35.19
2022-08-17T14:37:53.257Z,35.17
2022-08-17T14:40:24.972Z,35.04
2022-08-17T14:42:55.243Z,35.03
2022-08-17T14:45:31.469Z,35.18
2022-08-17T14:48:02.779Z,34.84
2022-08-17T14:50:31.810Z,34.12
2022-08-17T14:53:03.829Z,33.88
2022-08-17T14:55:32.547Z,34.24
2022-08-17T14:58:00.998Z,34.49
2022-08-17T15:00:29.181Z,34.67
2022-08-17T15:03:00.262Z,34.43
2022-08-17T15:05:37.903Z,34.25
2022-08-17T15:08:08.820Z,34.59
2022-08-17T15:10:37.713Z,34.59
2022-08-17T15:13:11.862Z,34.42
2022-08-17T15:15:40.899Z,34.72
2022-08-17T15:18:09.241Z,34.53
2022-08-17T15:20:37.470Z,34.66
2022-08-17T15:23:07.341Z,34.68
2022-08-17T15:25:35.694Z,34.45
2022-08-17T15:28:04.067Z,34.46
2022-08-17T15:30:32.349Z,34.52
2022-08-17T15:33:01.935Z,34.54
2022-08-17T15:35:33.721Z,34.49
2022-08-17T15:38:11.983Z,34.52
2022-08-17T15:40:45.443Z,34.13
2022-08-17T15:43:15.664Z,33.57
2022-08-17T15:45:44.519Z,33.44
2022-08-17T15:48:25.240Z,33.41
2022-08-17T15:50:53.693Z,33.34
2022-08-17T15:53:21.836Z,32.75
2022-08-17T15:55:51.648Z,33.20
2022-08-17T15:58:20.864Z,33.19
2022-08-17T16:01:18.183Z,33.19
2022-08-17T16:04:05.037Z,33.30
2022-08-17T16:06:35.451Z,33.24
2022-08-17T16:09:03.671Z,33.46
2022-08-17T16:11:33.166Z,33.47
2022-08-17T16:14:01.314Z,33.35
2022-08-17T16:16:31.460Z,33.19
2022-08-17T16:18:59.837Z,33.25
2022-08-17T16:21:31.247Z,33.28
2022-08-17T16:24:13.088Z,33.45
2022-08-17T16:26:43.814Z,33.65
2022-08-17T16:29:12.113Z,33.64
2022-08-17T16:31:41.911Z,33.68
2022-08-17T16:34:17.115Z,33.70
2022-08-17T16:36:53.723Z,33.51
2022-08-17T16:39:24.126Z,33.42
2022-08-17T16:41:53.554Z,33.39
2022-08-17T16:44:22.886Z,33.25
2022-08-17T16:46:51.557Z,33.08
2022-08-17T16:49:36.216Z,32.98
2022-08-17T16:52:10.054Z,32.80
2022-08-17T16:54:39.384Z,32.13
2022-08-17T16:57:08.899Z,32.79
2022-08-17T16:59:41.878Z,32.66
2022-08-17T17:02:14.148Z,32.66
2022-08-17T17:04:45.879Z,32.39
2022-08-17T17:07:25.818Z,32.40
2022-08-17T17:09:55.498Z,32.20
2022-08-17T17:13:01.229Z,31.89
2022-08-17T17:15:21.554Z,31.73
2022-08-17T17:17:52.143Z,31.52
2022-08-17T17:20:23.761Z,31.18
2022-08-17T17:23:02.295Z,30.97
2022-08-17T17:25:34.540Z,30.77
2022-08-17T17:28:09.850Z,30.55
2022-08-17T17:30:43.277Z,30.09
2022-08-17T17:33:13.859Z,29.91
2022-08-17T17:35:45.794Z,29.66
2022-08-17T17:38:18.778Z,29.14
2022-08-17T17:40:50.215Z,29.18
2022-08-17T17:43:38.347Z,28.80
2022-08-17T17:46:26.513Z,28.48
2022-08-17T17:48:57.219Z,28.23
2022-08-17T17:52:03.601Z,28.06
2022-08-17T17:54:32.476Z,27.72
2022-08-17T17:57:05.439Z,27.42
2022-08-17T17:59:44.090Z,27.01
2022-08-17T18:02:51.305Z,27.10
2022-08-17T18:05:34.508Z,26.95
2022-08-17T18:08:12.768Z,26.64
2022-08-17T18:10:49.160Z,26.65
2022-08-17T18:13:26.681Z,26.55
2022-08-17T18:16:00.856Z,26.47
2022-08-17T18:18:38.751Z,26.36
2022-08-17T18:21:16.980Z,26.23
2022-08-17T18:23:48.277Z,26.07
2022-08-17T18:26:37.088Z,25.86
2022-08-17T18:29:15.201Z,25.48
2022-08-17T18:31:44.925Z,25.36
2022-08-17T18:37:19.422Z,25.27
2022-08-17T18:39:47.912Z,25.22
2022-08-17T18:42:25.997Z,25.25
2022-08-17T18:44:55.483Z,25.22
2022-08-17T18:47:27.318Z,24.73
2022-08-17T18:50:02.591Z,24.90
2022-08-17T18:52:33.090Z,24.72
2022-08-17T18:55:09.770Z,24.54
2022-08-17T18:57:40.339Z,24.58
2022-08-17T19:00:17.713Z,24.53
2022-08-17T19:02:58.494Z,24.41
2022-08-17T19:05:32.561Z,24.38
2022-08-17T19:08:20.431Z,24.32
2022-08-17T19:10:50.509Z,24.26
2022-08-17T19:13:23.857Z,24.22
2022-08-17T19:16:14.458Z,24.14
2022-08-17T19:18:46.177Z,23.99
2022-08-17T19:21:20.191Z,24.02
2022-08-17T19:23:53.989Z,24.01
2022-08-17T19:26:53.690Z,23.96
2022-08-17T19:29:16.693Z,23.77
2022-08-17T19:31:47.998Z,23.65
2022-08-17T19:34:29.862Z,23.52
2022-08-17T19:37:04.753Z,23.47
2022-08-17T19:39:37.964Z,23.42
2022-08-17T19:42:12.725Z,23.36
2022-08-17T19:44:48.370Z,23.13
2022-08-17T19:47:36.679Z,23.25
2022-08-17T19:50:15.291Z,23.27
2022-08-17T19:52:48.648Z,23.24
2022-08-17T19:55:30.838Z,23.28
2022-08-17T19:58:07.085Z,23.28
2022-08-17T20:00:37.445Z,23.28
2022-08-17T20:03:16.316Z,23.22
2022-08-17T20:06:11.464Z,22.99
2022-08-17T20:08:44.172Z,22.93
2022-08-17T20:11:16.972Z,22.83
2022-08-17T20:13:49.722Z,22.73
2022-08-17T20:16:18.535Z,22.57
2022-08-17T20:18:51.510Z,22.44
2022-08-17T20:21:24.929Z,22.43
2022-08-17T20:23:55.419Z,22.45
2022-08-17T20:26:27.656Z,22.33
2022-08-17T20:29:37.763Z,22.30
2022-08-17T20:32:25.672Z,22.29
2022-08-17T20:35:09.390Z,22.23
2022-08-17T20:37:43.153Z,22.23
2022-08-17T20:40:36.460Z,22.21
2022-08-17T20:43:43.872Z,22.11
2022-08-17T20:46:31.693Z,21.98
2022-08-17T20:49:14.725Z,21.85
2022-08-17T20:52:01.528Z,22.05
2022-08-17T20:54:46.151Z,22.00
2022-08-17T20:57:49.074Z,22.00
2022-08-17T21:00:42.759Z,21.98
2022-08-17T21:03:51.033Z,21.99
2022-08-17T21:06:23.640Z,22.00
2022-08-17T21:08:55.136Z,22.06
2022-08-17T21:12:04.211Z,22.11
2022-08-17T21:14:51.954Z,22.12
2022-08-17T21:17:41.875Z,22.13
2022-08-17T21:20:23.148Z,22.09
2022-08-17T21:22:59.339Z,21.82
2022-08-17T21:25:44.949Z,21.95
2022-08-17T21:28:20.960Z,21.86
2022-08-17T21:30:55.520Z,21.87
2022-08-17T21:33:31.675Z,21.81
2022-08-17T21:36:24.829Z,21.75
2022-08-17T21:39:14.582Z,21.76
2022-08-17T21:41:52.833Z,21.59
2022-08-17T21:44:31.164Z,21.75
2022-08-17T21:47:15.184Z,21.81
2022-08-17T21:49:43.695Z,21.81
2022-08-17T21:52:14.817Z,21.82
2022-08-17T21:54:44.985Z,21.77
2022-08-17T21:57:17.858Z,21.73
2022-08-17T21:59:52.761Z,21.75
2022-08-17T22:02:23.087Z,21.48
2022-08-17T22:04:58.835Z,21.65
2022-08-17T22:07:39.497Z,21.60
2022-08-17T22:10:11.012Z,21.49
2022-08-17T22:12:39.135Z,21.34
2022-08-17T22:15:10.426Z,21.53
2022-08-17T22:17:42.272Z,21.52
2022-08-17T22:20:14.388Z,21.52
2022-08-17T22:23:24.354Z,21.51
2022-08-17T22:26:00.888Z,21.46
2022-08-17T22:28:41.021Z,21.44
2022-08-17T22:31:11.016Z,21.31
2022-08-17T22:33:46.020Z,21.31
2022-08-17T22:36:22.696Z,21.13
2022-08-17T22:38:53.407Z,21.05
2022-08-17T22:41:32.114Z,20.91
2022-08-17T22:44:02.459Z,20.87
2022-08-17T22:46:31.415Z,20.80
2022-08-17T22:49:00.724Z,20.72
2022-08-17T22:51:30.767Z,20.74
2022-08-17T22:54:19.908Z,20.73
2022-08-17T22:57:14.683Z,20.50
2022-08-17T22:59:51.319Z,20.66
2022-08-17T23:02:26.008Z,20.67
2022-08-17T23:04:57.410Z,20.67
2022-08-17T23:07:25.672Z,20.71
2022-08-17T23:09:55.768Z,20.62
2022-08-17T23:12:26.835Z,20.62
2022-08-17T23:15:00.701Z,20.56
2022-08-17T23:17:33.907Z,20.26
2022-08-17T23:20:06.641Z,20.31
2022-08-17T23:22:34.894Z,20.45
2022-08-17T23:25:05.283Z,20.54
2022-08-17T23:27:33.427Z,20.40
2022-08-17T23:30:01.592Z,20.39
2022-08-17T23:32:29.754Z,20.22
2022-08-17T23:34:59.206Z,20.46
2022-08-17T23:37:28.485Z,20.45
2022-08-17T23:39:56.754Z,20.38
2022-08-17T23:42:26.407Z,20.35
2022-08-17T23:44:55.881Z,20.35
2022-08-17T23:47:24.738Z,20.37
2022-08-17T23:49:54.242Z,20.43
2022-08-17T23:52:28.117Z,20.37
2022-08-17T23:54:57.576Z,20.45
2022-08-17T23:57:33.553Z,20.50
